createdAt,value
2023-02-08T04:00:15.520Z,-0.10
2023-02-08T04:02:50.006Z,-0.20
2023-02-08T04:05:18.153Z,-0.10
2023-02-08T04:07:48.214Z,-0.10
2023-02-08T04:10:16.285Z,-0.10
2023-02-08T04:13:06.816Z,-0.10
2023-02-08T04:15:34.911Z,-0.10
2023-02-08T04:18:04.103Z,0.00
2023-02-08T04:20:32.399Z,0.00
2023-02-08T04:23:45.442Z,0.00
2023-02-08T04:26:13.328Z,0.00
2023-02-08T04:28:41.140Z,0.10
2023-02-08T04:31:09.043Z,0.10
2023-02-08T04:33:38.364Z,0.00
2023-02-08T04:36:06.749Z,0.00
2023-02-08T04:38:34.792Z,0.00
2023-02-08T04:41:02.825Z,0.00
2023-02-08T04:43:31.016Z,0.00
2023-02-08T04:45:59.107Z,-0.10
2023-02-08T04:48:26.932Z,-0.10
2023-02-08T04:50:58.252Z,0.00
2023-02-08T04:53:26.683Z,-0.10
2023-02-08T04:55:54.619Z,-0.10
2023-02-08T04:58:24.099Z,-0.10
2023-02-08T05:00:51.950Z,-0.20
2023-02-08T05:03:20.763Z,-0.20
2023-02-08T05:05:56.809Z,-0.30
2023-02-08T05:08:26.265Z,-0.30
2023-02-08T05:10:54.092Z,-0.30
2023-02-08T05:13:21.924Z,-0.40
2023-02-08T05:15:49.817Z,-0.40
2023-02-08T05:18:17.812Z,-0.30
2023-02-08T05:20:45.683Z,-0.30
2023-02-08T05:23:13.546Z,-0.30
2023-02-08T05:25:42.708Z,-0.30
2023-02-08T05:28:10.516Z,-0.30
2023-02-08T05:30:40.162Z,-0.30
2023-02-08T05:33:08.161Z,-0.30
2023-02-08T05:35:36.023Z,-0.30
2023-02-08T05:38:04.040Z,-0.30
2023-02-08T05:40:32.104Z,-0.30
2023-02-08T05:43:01.256Z,-0.40
2023-02-08T05:45:29.064Z,-0.50
2023-02-08T05:47:56.886Z,-0.50
2023-02-08T05:50:24.745Z,-0.50
2023-02-08T05:52:52.597Z,-0.70
2023-02-08T05:55:20.477Z,-0.70
2023-02-08T05:57:48.299Z,-0.70
2023-02-08T06:00:19.948Z,-0.70
2023-02-08T06:02:49.142Z,-0.70
2023-02-08T06:05:17.201Z,-0.80
2023-02-08T06:07:45.197Z,-0.80
2023-02-08T06:10:13.053Z,-0.80
2023-02-08T06:12:40.892Z,-0.80
2023-02-08T06:15:09.399Z,-0.80
2023-02-08T06:17:38.792Z,-0.70
2023-02-08T06:20:07.478Z,-0.60
2023-02-08T06:22:35.827Z,-0.60
2023-02-08T06:25:04.043Z,-0.60
2023-02-08T06:27:31.941Z,-0.50
2023-02-08T06:29:59.768Z,-0.50
2023-02-08T06:32:27.708Z,-0.50
2023-02-08T06:34:57.036Z,-0.40
2023-02-08T06:37:24.952Z,-0.40
2023-02-08T06:39:52.809Z,-0.40
2023-02-08T06:42:20.630Z,-0.50
2023-02-08T06:44:55.120Z,-0.50
2023-02-08T06:47:23.435Z,-0.50
2023-02-08T06:49:51.373Z,-0.50
2023-02-08T06:52:21.068Z,-0.40
2023-02-08T06:54:48.995Z,-0.40
2023-02-08T06:57:16.904Z,-0.40
2023-02-08T06:59:45.236Z,-0.30
2023-02-08T07:02:15.192Z,-0.30
2023-02-08T07:04:43.822Z,-0.40
2023-02-08T07:07:13.249Z,-0.40
2023-02-08T07:09:43.047Z,-0.40
2023-02-08T07:12:11.308Z,-0.40
2023-02-08T07:14:41.589Z,-0.30
2023-02-08T07:17:09.829Z,-0.30
2023-02-08T07:19:37.894Z,-0.30
2023-02-08T07:22:08.168Z,-0.30
2023-02-08T07:24:37.096Z,-0.30
2023-02-08T07:27:08.045Z,-0.30
2023-02-08T07:29:36.818Z,-0.30
2023-02-08T07:32:06.384Z,-0.20
2023-02-08T07:34:36.296Z,-0.20
2023-02-08T07:37:04.632Z,-0.20
2023-02-08T07:39:32.687Z,-0.10
2023-02-08T07:42:00.731Z,-0.10
2023-02-08T07:44:37.277Z,-0.10
2023-02-08T07:47:05.267Z,-0.10
2023-02-08T07:49:33.710Z,-0.10
2023-02-08T07:52:02.205Z,0.00
2023-02-08T07:54:30.743Z,0.00
2023-02-08T07:56:58.601Z,0.10
2023-02-08T07:59:26.588Z,0.20
2023-02-08T08:01:56.072Z,0.20
2023-02-08T08:04:23.975Z,0.20
2023-02-08T08:06:53.527Z,0.30
2023-02-08T08:09:21.397Z,0.30
2023-02-08T08:11:49.258Z,0.30
2023-02-08T08:14:17.082Z,0.40
2023-02-08T08:16:44.940Z,0.40
2023-02-08T08:19:14.108Z,0.50
2023-02-08T08:21:41.963Z,0.50
2023-02-08T08:24:09.797Z,0.60
2023-02-08T08:26:37.628Z,0.70
2023-02-08T08:29:06.337Z,0.70
2023-02-08T08:31:34.264Z,0.80
2023-02-08T08:34:02.119Z,0.90
2023-02-08T08:36:31.526Z,1.00
2023-02-08T08:38:59.359Z,1.10
2023-02-08T08:41:28.191Z,1.20
2023-02-08T08:43:56.058Z,1.20
2023-02-08T08:46:24.009Z,1.40
2023-02-08T08:48:52.623Z,1.50
2023-02-08T08:51:20.482Z,1.50
2023-02-08T08:53:49.650Z,1.60
2023-02-08T08:56:17.492Z,1.70
2023-02-08T08:58:45.308Z,1.80
2023-02-08T09:01:13.918Z,1.80
2023-02-08T09:03:41.759Z,1.90
2023-02-08T09:06:09.630Z,1.90
2023-02-08T09:08:37.457Z,1.90
2023-02-08T09:11:08.549Z,1.90
2023-02-08T09:13:36.822Z,2.00
2023-02-08T09:16:10.069Z,2.00
2023-02-08T09:18:38.080Z,2.10
2023-02-08T09:21:09.838Z,2.10
2023-02-08T09:23:38.114Z,2.10
2023-02-08T09:26:09.337Z,2.20
2023-02-08T09:28:37.420Z,2.20
2023-02-08T09:31:09.096Z,2.30
2023-02-08T09:33:37.149Z,2.30
2023-02-08T09:36:05.967Z,2.40
2023-02-08T09:38:34.795Z,2.40
2023-02-08T09:41:20.304Z,2.30
2023-02-08T09:43:56.921Z,2.40
2023-02-08T09:46:28.847Z,2.50
2023-02-08T09:49:01.934Z,2.60
2023-02-08T09:51:33.523Z,2.60
2023-02-08T09:54:04.059Z,2.60
2023-02-08T09:56:36.972Z,2.60
2023-02-08T09:59:06.217Z,2.70
2023-02-08T10:01:36.748Z,2.70
2023-02-08T10:04:17.142Z,2.80
2023-02-08T10:06:45.032Z,2.80
2023-02-08T10:09:16.656Z,2.80
2023-02-08T10:11:55.938Z,2.80
2023-02-08T10:14:41.034Z,2.90
2023-02-08T10:17:26.195Z,2.90
2023-02-08T10:20:09.878Z,2.90
2023-02-08T10:22:48.914Z,2.90
2023-02-08T10:25:41.435Z,3.00
2023-02-08T10:28:27.243Z,3.10
2023-02-08T10:31:01.352Z,3.10
2023-02-08T10:33:35.993Z,3.10
2023-02-08T10:36:04.523Z,3.00
2023-02-08T10:38:45.774Z,3.10
2023-02-08T10:41:20.515Z,3.10
2023-02-08T10:43:56.986Z,3.10
2023-02-08T10:46:31.390Z,3.10
2023-02-08T10:49:08.105Z,3.30
2023-02-08T10:51:37.048Z,3.30
2023-02-08T10:54:05.637Z,3.30
2023-02-08T10:56:44.061Z,3.30
2023-02-08T10:59:19.904Z,3.40
2023-02-08T11:01:49.040Z,3.50
2023-02-08T11:04:18.827Z,3.50
2023-02-08T11:06:48.729Z,3.50
2023-02-08T11:09:25.222Z,3.60
2023-02-08T11:11:53.836Z,3.60
2023-02-08T11:14:35.056Z,3.60
2023-02-08T11:17:28.082Z,3.60
2023-02-08T11:19:56.354Z,3.60
2023-02-08T11:22:27.263Z,3.60
2023-02-08T11:24:58.016Z,3.60
2023-02-08T11:27:34.746Z,3.70
2023-02-08T11:30:24.221Z,3.70
2023-02-08T11:33:18.372Z,3.80
2023-02-08T11:36:05.174Z,3.80
2023-02-08T11:38:35.967Z,3.90
2023-02-08T11:41:14.144Z,3.90
2023-02-08T11:43:42.630Z,4.00
2023-02-08T11:46:12.314Z,4.00
2023-02-08T11:48:44.947Z,4.00
2023-02-08T11:51:15.645Z,4.00
2023-02-08T11:53:48.642Z,4.10
2023-02-08T11:56:20.271Z,4.10
2023-02-08T11:58:59.919Z,4.10
2023-02-08T12:01:32.030Z,4.10
2023-02-08T12:04:03.286Z,4.10
2023-02-08T12:07:03.039Z,4.10
2023-02-08T12:09:51.277Z,4.20
2023-02-08T12:12:26.157Z,4.20
2023-02-08T12:15:05.845Z,4.20
2023-02-08T12:17:58.200Z,4.30
2023-02-08T12:20:38.939Z,4.40
2023-02-08T12:23:25.770Z,4.40
2023-02-08T12:26:05.751Z,4.40
2023-02-08T12:28:51.257Z,4.40
2023-02-08T12:31:28.480Z,4.50
2023-02-08T12:34:07.484Z,4.50
2023-02-08T12:37:16.369Z,4.50
2023-02-08T12:40:12.277Z,4.60
2023-02-08T12:42:55.661Z,4.60
2023-02-08T12:45:47.298Z,4.60
2023-02-08T12:48:30.395Z,4.70
2023-02-08T12:51:07.705Z,4.70
2023-02-08T12:53:40.732Z,4.80
2023-02-08T12:56:16.521Z,4.80
2023-02-08T12:58:46.886Z,4.70
2023-02-08T13:01:19.601Z,4.70
2023-02-08T13:03:52.533Z,4.70
2023-02-08T13:06:24.780Z,4.70
2023-02-08T13:08:58.342Z,4.70
2023-02-08T13:11:33.927Z,4.60
2023-02-08T13:14:07.081Z,4.60
2023-02-08T13:16:40.279Z,4.80
2023-02-08T13:19:27.400Z,4.80
2023-02-08T13:21:57.020Z,4.80
2023-02-08T13:24:33.940Z,4.80
2023-02-08T13:27:01.816Z,4.80
2023-02-08T13:29:30.705Z,4.80
2023-02-08T13:32:03.792Z,4.80
2023-02-08T13:34:37.353Z,4.80
2023-02-08T13:37:24.715Z,4.80
2023-02-08T13:40:01.200Z,4.90
2023-02-08T13:42:31.430Z,4.90
2023-02-08T13:45:00.048Z,4.90
2023-02-08T13:47:31.751Z,4.80
2023-02-08T13:50:04.877Z,4.90
2023-02-08T13:52:51.949Z,5.00
2023-02-08T13:55:45.843Z,5.00
2023-02-08T13:58:40.323Z,5.00
2023-02-08T14:01:18.550Z,5.00
2023-02-08T14:04:06.512Z,5.10
2023-02-08T14:06:36.130Z,5.10
2023-02-08T14:09:12.735Z,5.20
2023-02-08T14:11:45.398Z,5.20
2023-02-08T14:14:19.189Z,5.10
2023-02-08T14:16:48.193Z,5.20
2023-02-08T14:19:24.819Z,5.10
2023-02-08T14:22:03.565Z,5.20
2023-02-08T14:24:35.736Z,5.20
2023-02-08T14:27:09.622Z,5.30
2023-02-08T14:29:38.297Z,5.30
2023-02-08T14:32:07.029Z,5.30
2023-02-08T14:34:37.288Z,5.30
2023-02-08T14:37:27.301Z,5.40
2023-02-08T14:40:28.420Z,5.50
2023-02-08T14:42:59.803Z,5.60
2023-02-08T14:45:34.192Z,5.80
2023-02-08T14:48:19.840Z,6.20
2023-02-08T14:50:56.168Z,7.20
2023-02-08T14:53:36.004Z,9.10
2023-02-08T14:56:08.471Z,10.80
2023-02-08T14:58:41.315Z,12.00
2023-02-08T15:01:16.769Z,12.90
2023-02-08T15:03:46.493Z,13.70
2023-02-08T15:06:49.806Z,13.70
2023-02-08T15:09:21.736Z,12.90
2023-02-08T15:11:55.104Z,12.00
2023-02-08T15:14:24.277Z,11.70
2023-02-08T15:16:53.917Z,11.60
2023-02-08T15:19:24.619Z,11.20
2023-02-08T15:21:52.557Z,10.30
2023-02-08T15:24:23.331Z,9.90
2023-02-08T15:26:53.960Z,10.00
2023-02-08T15:29:32.788Z,10.10
2023-02-08T15:32:03.790Z,9.60
2023-02-08T15:34:31.703Z,9.30
2023-02-08T15:36:59.822Z,8.80
2023-02-08T15:39:35.214Z,8.30
2023-02-08T15:42:03.311Z,7.80
2023-02-08T15:44:34.738Z,7.40
2023-02-08T15:47:05.458Z,7.10
2023-02-08T15:49:36.432Z,6.90
2023-02-08T15:52:05.064Z,6.70
2023-02-08T15:54:33.161Z,6.50
2023-02-08T15:57:03.484Z,6.30
2023-02-08T15:59:37.625Z,6.20
2023-02-08T16:02:24.082Z,6.10
2023-02-08T16:04:52.036Z,6.00
2023-02-08T16:07:26.621Z,5.90
2023-02-08T16:09:55.333Z,5.80
2023-02-08T16:12:24.807Z,5.70
2023-02-08T16:14:56.519Z,5.70
2023-02-08T16:17:34.237Z,5.50
2023-02-08T16:20:02.467Z,5.40
2023-02-08T16:22:33.337Z,5.40
2023-02-08T16:25:23.546Z,5.30
2023-02-08T16:27:51.488Z,5.30
2023-02-08T16:30:22.990Z,5.20
2023-02-08T16:32:51.223Z,5.10
2023-02-08T16:35:25.042Z,5.10
2023-02-08T16:37:59.073Z,5.00
2023-02-08T16:40:43.724Z,4.90
2023-02-08T16:43:22.898Z,4.90
2023-02-08T16:46:21.054Z,4.90
2023-02-08T16:48:55.273Z,4.80
2023-02-08T16:51:25.607Z,4.80
2023-02-08T16:53:56.420Z,4.70
2023-02-08T16:56:24.701Z,4.60
2023-02-08T16:58:52.573Z,4.60
2023-02-08T17:01:23.909Z,4.60
2023-02-08T17:03:52.881Z,4.50
2023-02-08T17:06:29.625Z,4.50
2023-02-08T17:08:58.957Z,4.50
2023-02-08T17:11:27.196Z,4.40
2023-02-08T17:13:55.577Z,4.40
2023-02-08T17:16:26.374Z,4.40
2023-02-08T17:18:55.177Z,4.30
2023-02-08T17:21:23.300Z,4.20
2023-02-08T17:23:51.295Z,4.10
2023-02-08T17:26:22.978Z,4.10
2023-02-08T17:28:51.381Z,4.00
2023-02-08T17:31:19.576Z,4.00
2023-02-08T17:33:50.147Z,3.90
2023-02-08T17:36:18.641Z,3.90
2023-02-08T17:38:47.890Z,3.80
2023-02-08T17:41:17.406Z,3.80
2023-02-08T17:43:45.808Z,3.80
2023-02-08T17:46:17.772Z,3.80
2023-02-08T17:48:48.257Z,3.80
2023-02-08T17:51:20.030Z,3.80
2023-02-08T17:53:48.302Z,3.80
2023-02-08T17:56:18.046Z,3.80
2023-02-08T17:58:47.718Z,3.80
2023-02-08T18:01:20.522Z,3.80
2023-02-08T18:03:50.437Z,3.70
2023-02-08T18:06:20.675Z,3.70
2023-02-08T18:08:48.608Z,3.60
2023-02-08T18:11:19.705Z,3.50
2023-02-08T18:13:49.727Z,3.40
2023-02-08T18:16:19.237Z,3.30
2023-02-08T18:18:47.349Z,3.20
2023-02-08T18:21:17.126Z,3.20
2023-02-08T18:23:46.834Z,3.10
2023-02-08T18:26:16.919Z,3.00
2023-02-08T18:28:45.184Z,2.90
2023-02-08T18:31:15.103Z,2.80
2023-02-08T18:33:43.991Z,2.90
2023-02-08T18:36:12.828Z,2.90
2023-02-08T18:38:41.268Z,2.80
2023-02-08T18:41:11.830Z,2.80
2023-02-08T18:43:40.644Z,2.80
2023-02-08T18:46:10.639Z,2.80
2023-02-08T18:48:39.013Z,2.80
2023-02-08T18:51:08.862Z,2.70
2023-02-08T18:53:38.596Z,2.70
2023-02-08T18:56:08.602Z,2.70
2023-02-08T18:58:38.060Z,2.70
2023-02-08T19:01:07.331Z,2.60
2023-02-08T19:03:36.092Z,2.50
2023-02-08T19:06:06.171Z,2.40
2023-02-08T19:08:34.985Z,2.40
2023-02-08T19:11:02.803Z,2.40
2023-02-08T19:13:30.636Z,2.40
2023-02-08T19:15:59.802Z,2.40
2023-02-08T19:18:27.646Z,2.40
2023-02-08T19:20:55.468Z,2.40
2023-02-08T19:23:23.316Z,2.40
2023-02-08T19:25:51.200Z,2.40
2023-02-08T19:28:19.172Z,2.40
2023-02-08T19:30:47.051Z,2.30
2023-02-08T19:33:16.221Z,2.40
2023-02-08T19:35:44.330Z,2.40
2023-02-08T19:38:12.422Z,2.30
2023-02-08T19:40:40.240Z,2.30
2023-02-08T19:43:08.098Z,2.30
2023-02-08T19:45:36.664Z,2.40
2023-02-08T19:48:05.073Z,2.30
2023-02-08T19:50:34.235Z,2.30
2023-02-08T19:53:02.124Z,2.30
2023-02-08T19:55:29.944Z,2.30
2023-02-08T19:57:57.777Z,2.30
2023-02-08T20:00:26.291Z,2.10
2023-02-08T20:02:54.157Z,2.10
2023-02-08T20:05:21.955Z,2.10
2023-02-08T20:07:51.069Z,2.10
2023-02-08T20:10:18.947Z,2.10
2023-02-08T20:12:46.761Z,2.10
2023-02-08T20:15:14.559Z,2.10
2023-02-08T20:17:42.403Z,2.00
2023-02-08T20:20:11.330Z,2.00
2023-02-08T20:22:39.144Z,2.00
2023-02-08T20:25:09.063Z,2.00
2023-02-08T20:27:36.900Z,1.90
2023-02-08T20:30:05.625Z,2.00
2023-02-08T20:32:33.478Z,2.00
2023-02-08T20:35:01.380Z,2.00
2023-02-08T20:37:29.272Z,2.00
2023-02-08T20:39:57.141Z,1.90
2023-02-08T20:42:26.381Z,1.80
2023-02-08T20:44:54.346Z,1.70
2023-02-08T20:47:22.250Z,1.70
2023-02-08T20:49:50.543Z,1.70
2023-02-08T20:52:18.681Z,1.70
2023-02-08T20:54:47.718Z,1.70
2023-02-08T20:57:17.956Z,1.60
2023-02-08T20:59:47.223Z,1.50
2023-02-08T21:02:18.954Z,1.60
2023-02-08T21:04:46.831Z,1.70
2023-02-08T21:07:16.821Z,1.60
2023-02-08T21:09:45.310Z,1.50
2023-02-08T21:12:13.390Z,1.60
2023-02-08T21:14:43.038Z,1.50
2023-02-08T21:17:12.270Z,1.40
2023-02-08T21:19:40.479Z,1.40
2023-02-08T21:22:08.300Z,1.40
2023-02-08T21:24:36.194Z,1.40
2023-02-08T21:27:04.009Z,1.40
2023-02-08T21:29:32.570Z,1.30
2023-02-08T21:32:01.073Z,1.30
2023-02-08T21:34:30.554Z,1.40
2023-02-08T21:36:58.443Z,1.40
2023-02-08T21:39:26.357Z,1.40
2023-02-08T21:41:55.342Z,1.40
2023-02-08T21:44:23.363Z,1.50
2023-02-08T21:46:51.311Z,1.40
2023-02-08T21:49:37.065Z,1.40
2023-02-08T21:52:24.198Z,1.40
2023-02-08T21:54:53.568Z,1.40
2023-02-08T21:57:23.472Z,1.50
2023-02-08T21:59:53.188Z,1.50
2023-02-08T22:02:24.648Z,1.50
2023-02-08T22:05:11.484Z,1.60
2023-02-08T22:07:45.807Z,1.60
2023-02-08T22:10:15.395Z,1.60
2023-02-08T22:12:43.260Z,1.60
2023-02-08T22:15:13.143Z,1.70
2023-02-08T22:17:41.361Z,1.70
2023-02-08T22:20:10.609Z,1.60
2023-02-08T22:22:39.048Z,1.60
2023-02-08T22:25:09.578Z,1.50
2023-02-08T22:27:38.977Z,1.50
2023-02-08T22:30:07.640Z,1.40
2023-02-08T22:32:35.667Z,1.30
2023-02-08T22:35:03.602Z,1.30
2023-02-08T22:37:33.877Z,1.30
2023-02-08T22:40:01.990Z,1.20
2023-02-08T22:42:31.266Z,1.20
2023-02-08T22:44:59.232Z,1.10
2023-02-08T22:47:27.082Z,1.00
2023-02-08T22:49:57.546Z,1.00
2023-02-08T22:52:25.778Z,1.00
2023-02-08T22:54:54.561Z,0.90
2023-02-08T22:57:22.603Z,0.90
2023-02-08T22:59:51.922Z,1.00
